Terminal Aerodrome Forecast
Issued by NWS

Home | Current Version | Previous Version | Graphics & Text | Print | Product List | Glossary On
Versions: 1 2 3 4 5 6 7 8 9 10 11 12 13 14
549
FTUS43 KGRB 180520
TAFAUW
TAF
KAUW 180520Z 1806/1906 02006KT P6SM BKN030
     FM180900 03005KT P6SM BKN025
     FM181300 05006KT P6SM OVC016
     FM182100 02012G18KT 3SM -SN OVC015
     FM190200 01010KT P6SM SCT015=

USA.gov is the U.S. government's official web portal to all federal, state and local government web resources and services.